sensor_id;sensor_type;location;lat;lon;timestamp;pressure;altitude;pressure_sealevel;temperature;humidity
46638;BME280;32365;46.938;7.390;2023-04-08T15:29:49;95547.25;;;12.54;47.29
46638;BME280;32365;46.938;7.390;2023-04-08T15:32:15;95555.41;;;13.36;46.21
46638;BME280;32365;46.938;7.390;2023-04-08T15:34:42;95549.84;;;13.45;45.50
46638;BME280;32365;46.938;7.390;2023-04-08T15:37:08;95546.69;;;15.70;41.64
46638;BME280;32365;46.938;7.390;2023-04-08T15:39:35;95554.94;;;16.15;40.20
46638;BME280;32365;46.938;7.390;2023-04-08T15:42:01;95546.00;;;17.46;36.59
46638;BME280;32365;46.938;7.390;2023-04-08T15:44:29;95551.28;;;18.81;34.65
46638;BME280;32365;46.938;7.390;2023-04-08T15:46:58;95545.19;;;19.88;31.87
46638;BME280;32365;46.938;7.390;2023-04-08T15:49:25;95547.44;;;19.27;31.88
46638;BME280;32365;46.938;7.390;2023-04-08T15:51:51;95548.44;;;18.42;33.48
46638;BME280;32365;46.938;7.390;2023-04-08T15:54:18;95549.59;;;18.60;34.52
46638;BME280;32365;46.938;7.390;2023-04-08T15:56:44;95548.00;;;19.72;30.89
46638;BME280;32365;46.938;7.390;2023-04-08T15:59:11;95545.56;;;20.19;29.66
46638;BME280;32365;46.938;7.390;2023-04-08T16:01:37;95549.66;;;17.45;35.18
46638;BME280;32365;46.938;7.390;2023-04-08T16:04:06;95555.75;;;16.42;36.55
46638;BME280;32365;46.938;7.390;2023-04-08T16:06:32;95548.06;;;15.20;38.89
46638;BME280;32365;46.938;7.390;2023-04-08T16:08:59;95554.22;;;15.03;38.77
46638;BME280;32365;46.938;7.390;2023-04-08T16:11:25;95550.94;;;14.81;40.33
46638;BME280;32365;46.938;7.390;2023-04-08T16:13:53;95558.47;;;14.50;40.45
46638;BME280;32365;46.938;7.390;2023-04-08T16:16:19;95550.84;;;13.66;43.25
46638;BME280;32365;46.938;7.390;2023-04-08T16:18:45;95565.16;;;14.40;41.95
46638;BME280;32365;46.938;7.390;2023-04-08T16:21:14;95545.94;;;13.92;44.37
46638;BME280;32365;46.938;7.390;2023-04-08T16:23:41;95552.69;;;13.65;44.38
46638;BME280;32365;46.938;7.390;2023-04-08T16:26:07;95555.75;;;13.84;45.39
46638;BME280;32365;46.938;7.390;2023-04-08T16:28:34;95552.88;;;13.59;46.91
46638;BME280;32365;46.938;7.390;2023-04-08T16:31:01;95555.44;;;12.97;46.73
46638;BME280;32365;46.938;7.390;2023-04-08T16:33:27;95560.09;;;12.78;46.44
46638;BME280;32365;46.938;7.390;2023-04-08T16:35:55;95559.69;;;12.69;46.26
46638;BME280;32365;46.938;7.390;2023-04-08T16:38:23;95562.47;;;12.34;48.06
46638;BME280;32365;46.938;7.390;2023-04-08T16:40:49;95566.94;;;12.21;48.49
46638;BME280;32365;46.938;7.390;2023-04-08T16:43:16;95566.22;;;11.44;49.52
46638;BME280;32365;46.938;7.390;2023-04-08T16:45:43;95565.09;;;11.64;49.83
46638;BME280;32365;46.938;7.390;2023-04-08T16:48:10;95565.41;;;11.55;50.27
46638;BME280;32365;46.938;7.390;2023-04-08T16:50:37;95571.88;;;12.06;49.31
46638;BME280;32365;46.938;7.390;2023-04-08T16:53:04;95567.06;;;11.74;50.11
46638;BME280;32365;46.938;7.390;2023-04-08T16:55:32;95574.94;;;11.91;50.15
46638;BME280;32365;46.938;7.390;2023-04-08T16:57:59;95577.06;;;11.41;51.04
46638;BME280;32365;46.938;7.390;2023-04-08T17:00:26;95573.69;;;11.40;52.63
46638;BME280;32365;46.938;7.390;2023-04-08T17:02:53;95573.75;;;11.58;51.64
46638;BME280;32365;46.938;7.390;2023-04-08T17:05:21;95583.28;;;10.92;53.96
46638;BME280;32365;46.938;7.390;2023-04-08T17:07:48;95584.16;;;10.74;53.06
46638;BME280;32365;46.938;7.390;2023-04-08T17:10:14;95579.91;;;10.80;53.91
46638;BME280;32365;46.938;7.390;2023-04-08T17:12:42;95582.97;;;10.46;54.58
46638;BME280;32365;46.938;7.390;2023-04-08T17:15:09;95581.34;;;10.34;55.63
46638;BME280;32365;46.938;7.390;2023-04-08T17:17:36;95582.09;;;10.22;56.14
46638;BME280;32365;46.938;7.390;2023-04-08T17:20:03;95582.78;;;10.29;56.03
46638;BME280;32365;46.938;7.390;2023-04-08T17:22:29;95585.94;;;10.31;56.01
46638;BME280;32365;46.938;7.390;2023-04-08T17:24:56;95590.75;;;10.46;55.50
46638;BME280;32365;46.938;7.390;2023-04-08T17:27:23;95589.50;;;10.49;55.84
46638;BME280;32365;46.938;7.390;2023-04-08T17:29:50;95596.59;;;10.42;55.85
46638;BME280;32365;46.938;7.390;2023-04-08T17:32:21;95600.56;;;10.26;56.18
46638;BME280;32365;46.938;7.390;2023-04-08T17:34:49;95605.72;;;10.26;57.21
46638;BME280;32365;46.938;7.390;2023-04-08T17:37:16;95604.44;;;10.16;57.52
46638;BME280;32365;46.938;7.390;2023-04-08T17:39:43;95610.50;;;10.10;58.20
46638;BME280;32365;46.938;7.390;2023-04-08T17:42:10;95612.50;;;10.08;57.89
46638;BME280;32365;46.938;7.390;2023-04-08T17:44:37;95610.66;;;9.97;58.33
46638;BME280;32365;46.938;7.390;2023-04-08T17:47:07;95613.81;;;9.99;58.31
46638;BME280;32365;46.938;7.390;2023-04-08T17:49:34;95610.19;;;9.69;58.47
46638;BME280;32365;46.938;7.390;2023-04-08T17:52:00;95614.41;;;9.64;59.76
46638;BME280;32365;46.938;7.390;2023-04-08T17:54:27;95623.34;;;9.68;59.44
46638;BME280;32365;46.938;7.390;2023-04-08T17:56:55;95619.72;;;9.69;59.93
46638;BME280;32365;46.938;7.390;2023-04-08T17:59:22;95622.38;;;9.44;60.69
46638;BME280;32365;46.938;7.390;2023-04-08T18:01:48;95624.13;;;9.50;60.76
46638;BME280;32365;46.938;7.390;2023-04-08T18:04:16;95622.78;;;9.40;60.47
46638;BME280;32365;46.938;7.390;2023-04-08T18:06:43;95629.34;;;9.43;61.00
46638;BME280;32365;46.938;7.390;2023-04-08T18:09:12;95633.47;;;9.26;62.03
46638;BME280;32365;46.938;7.390;2023-04-08T18:11:39;95637.41;;;9.28;61.29
46638;BME280;32365;46.938;7.390;2023-04-08T18:14:05;95639.44;;;9.26;61.91
46638;BME280;32365;46.938;7.390;2023-04-08T18:16:32;95641.16;;;9.32;61.79
46638;BME280;32365;46.938;7.390;2023-04-08T18:18:59;95642.81;;;9.27;62.23
46638;BME280;32365;46.938;7.390;2023-04-08T18:21:27;95641.22;;;9.26;61.81
46638;BME280;32365;46.938;7.390;2023-04-08T18:23:53;95649.84;;;9.19;62.93
46638;BME280;32365;46.938;7.390;2023-04-08T18:26:19;95651.59;;;9.19;63.31
46638;BME280;32365;46.938;7.390;2023-04-08T18:28:46;95657.72;;;9.24;63.12
46638;BME280;32365;46.938;7.390;2023-04-08T18:31:13;95658.31;;;9.01;63.31
46638;BME280;32365;46.938;7.390;2023-04-08T18:33:39;95659.00;;;8.90;64.19
46638;BME280;32365;46.938;7.390;2023-04-08T18:36:07;95664.78;;;9.11;64.18
46638;BME280;32365;46.938;7.390;2023-04-08T18:38:35;95663.56;;;9.13;63.72
46638;BME280;32365;46.938;7.390;2023-04-08T18:41:04;95667.63;;;9.02;64.17
46638;BME280;32365;46.938;7.390;2023-04-08T18:43:31;95667.84;;;9.01;64.46
46638;BME280;32365;46.938;7.390;2023-04-08T18:45:58;95675.66;;;8.87;64.85
46638;BME280;32365;46.938;7.390;2023-04-08T18:48:25;95673.50;;;8.84;65.11
46638;BME280;32365;46.938;7.390;2023-04-08T18:50:52;95679.06;;;8.88;65.48
46638;BME280;32365;46.938;7.390;2023-04-08T18:53:18;95679.34;;;9.05;64.79
46638;BME280;32365;46.938;7.390;2023-04-08T18:55:47;95687.09;;;9.05;64.97
46638;BME280;32365;46.938;7.390;2023-04-08T18:58:15;95688.75;;;8.92;65.62
46638;BME280;32365;46.938;7.390;2023-04-08T19:00:41;95688.13;;;8.97;64.50
46638;BME280;32365;46.938;7.390;2023-04-08T19:03:08;95691.44;;;8.79;65.52
46638;BME280;32365;46.938;7.390;2023-04-08T19:05:35;95701.56;;;8.74;65.79
46638;BME280;32365;46.938;7.390;2023-04-08T19:08:01;95697.53;;;8.85;65.28
46638;BME280;32365;46.938;7.390;2023-04-08T19:10:28;95699.84;;;8.68;66.26
46638;BME280;32365;46.938;7.390;2023-04-08T19:12:57;95707.94;;;8.71;66.18
46638;BME280;32365;46.938;7.390;2023-04-08T19:15:23;95706.72;;;8.74;66.13
46638;BME280;32365;46.938;7.390;2023-04-08T19:17:50;95710.97;;;8.61;66.08
46638;BME280;32365;46.938;7.390;2023-04-08T19:20:17;95710.75;;;8.70;65.79
46638;BME280;32365;46.938;7.390;2023-04-08T19:22:43;95706.94;;;8.72;66.27
46638;BME280;32365;46.938;7.390;2023-04-08T19:25:12;95710.22;;;8.86;65.89
46638;BME280;32365;46.938;7.390;2023-04-08T19:27:38;95716.00;;;8.88;65.80
46638;BME280;32365;46.938;7.390;2023-04-08T19:30:07;95714.25;;;8.82;64.64
46638;BME280;32365;46.938;7.390;2023-04-08T19:32:34;95712.06;;;8.79;63.99
46638;BME280;32365;46.938;7.390;2023-04-08T19:35:01;95712.69;;;8.74;64.88
46638;BME280;32365;46.938;7.390;2023-04-08T19:37:27;95713.53;;;8.61;65.22
46638;BME280;32365;46.938;7.390;2023-04-08T19:39:54;95707.59;;;8.61;65.40
46638;BME280;32365;46.938;7.390;2023-04-08T19:42:21;95718.38;;;8.51;64.62
46638;BME280;32365;46.938;7.390;2023-04-08T19:44:48;95716.38;;;8.46;64.62
46638;BME280;32365;46.938;7.390;2023-04-08T19:47:16;95717.78;;;8.42;64.88
46638;BME280;32365;46.938;7.390;2023-04-08T19:49:42;95709.06;;;8.37;64.47
46638;BME280;32365;46.938;7.390;2023-04-08T19:52:09;95717.41;;;8.39;64.47
46638;BME280;32365;46.938;7.390;2023-04-08T19:54:36;95723.53;;;8.51;64.20
46638;BME280;32365;46.938;7.390;2023-04-08T19:57:04;95733.78;;;8.65;64.41
46638;BME280;32365;46.938;7.390;2023-04-08T19:59:32;95730.50;;;8.51;63.42
46638;BME280;32365;46.938;7.390;2023-04-08T20:01:59;95733.31;;;8.36;64.24
46638;BME280;32365;46.938;7.390;2023-04-08T20:04:28;95735.06;;;8.35;65.49
46638;BME280;32365;46.938;7.390;2023-04-08T20:06:55;95740.22;;;8.49;65.88
46638;BME280;32365;46.938;7.390;2023-04-08T20:09:21;95742.22;;;8.33;66.23
46638;BME280;32365;46.938;7.390;2023-04-08T20:11:48;95742.47;;;8.18;68.18
46638;BME280;32365;46.938;7.390;2023-04-08T20:14:14;95744.88;;;8.06;68.56
46638;BME280;32365;46.938;7.390;2023-04-08T20:16:41;95743.53;;;7.77;71.93
46638;BME280;32365;46.938;7.390;2023-04-08T20:19:07;95738.19;;;7.85;72.80
46638;BME280;32365;46.938;7.390;2023-04-08T20:21:35;95745.94;;;7.85;73.55
46638;BME280;32365;46.938;7.390;2023-04-08T20:24:02;95743.53;;;7.77;74.81
46638;BME280;32365;46.938;7.390;2023-04-08T20:26:29;95742.00;;;7.55;74.67
46638;BME280;32365;46.938;7.390;2023-04-08T20:28:55;95742.78;;;7.56;74.85
46638;BME280;32365;46.938;7.390;2023-04-08T20:31:22;95742.78;;;7.49;74.15
46638;BME280;32365;46.938;7.390;2023-04-08T20:33:48;95744.56;;;7.55;73.23
46638;BME280;32365;46.938;7.390;2023-04-08T20:36:15;95736.41;;;7.52;72.01
